sensor_id;sensor_type;location;lat;lon;timestamp;pressure;altitude;pressure_sealevel;temperature;humidity
70589;BME280;58152;49.202;18.744;2023-04-10T00:00:48;98101.69;;;5.32;60.85
70589;BME280;58152;49.202;18.744;2023-04-10T00:03:26;98104.41;;;5.23;60.83
70589;BME280;58152;49.202;18.744;2023-04-10T00:06:17;98092.41;;;5.08;61.06
70589;BME280;58152;49.202;18.744;2023-04-10T00:08:58;98102.03;;;5.02;61.04
70589;BME280;58152;49.202;18.744;2023-04-10T00:11:42;98106.41;;;4.98;61.74
70589;BME280;58152;49.202;18.744;2023-04-10T00:14:10;98103.03;;;4.89;61.75
70589;BME280;58152;49.202;18.744;2023-04-10T00:16:38;98095.31;;;4.82;61.57
70589;BME280;58152;49.202;18.744;2023-04-10T00:19:08;98093.66;;;4.77;61.87
70589;BME280;58152;49.202;18.744;2023-04-10T00:21:43;98097.97;;;4.78;61.69
70589;BME280;58152;49.202;18.744;2023-04-10T00:24:12;98087.59;;;4.75;61.77
70589;BME280;58152;49.202;18.744;2023-04-10T00:26:43;98084.22;;;4.68;61.79
70589;BME280;58152;49.202;18.744;2023-04-10T00:29:09;98086.81;;;4.67;62.05
70589;BME280;58152;49.202;18.744;2023-04-10T00:35:09;98095.50;;;4.63;62.11
70589;BME280;58152;49.202;18.744;2023-04-10T00:37:35;98091.25;;;4.58;62.14
70589;BME280;58152;49.202;18.744;2023-04-10T00:40:01;98090.41;;;4.55;62.12
70589;BME280;58152;49.202;18.744;2023-04-10T00:42:30;98100.78;;;4.55;62.31
70589;BME280;58152;49.202;18.744;2023-04-10T00:44:56;98093.91;;;4.51;62.41
70589;BME280;58152;49.202;18.744;2023-04-10T00:47:21;98099.06;;;4.52;62.53
70589;BME280;58152;49.202;18.744;2023-04-10T00:49:47;98086.19;;;4.45;62.35
70589;BME280;58152;49.202;18.744;2023-04-10T00:52:12;98088.75;;;4.43;62.60
70589;BME280;58152;49.202;18.744;2023-04-10T00:54:38;98091.38;;;4.43;62.57
70589;BME280;58152;49.202;18.744;2023-04-10T00:57:04;98085.38;;;4.37;62.87
70589;BME280;58152;49.202;18.744;2023-04-10T00:59:30;98087.94;;;4.38;62.52
70589;BME280;58152;49.202;18.744;2023-04-10T01:01:57;98086.22;;;4.37;63.19
70589;BME280;58152;49.202;18.744;2023-04-10T01:04:23;98087.13;;;4.36;63.38
70589;BME280;58152;49.202;18.744;2023-04-10T01:07:15;98093.16;;;4.37;63.39
70589;BME280;58152;49.202;18.744;2023-04-10T01:15:22;98097.59;;;4.25;62.89
70589;BME280;58152;49.202;18.744;2023-04-10T01:18:06;98097.59;;;4.27;63.09
70589;BME280;58152;49.202;18.744;2023-04-10T01:20:37;98095.06;;;4.18;63.13
70589;BME280;58152;49.202;18.744;2023-04-10T01:23:32;98096.75;;;4.20;62.99
70589;BME280;58152;49.202;18.744;2023-04-10T01:26:05;98099.44;;;4.13;63.02
70589;BME280;58152;49.202;18.744;2023-04-10T01:28:58;98092.56;;;4.02;63.51
70589;BME280;58152;49.202;18.744;2023-04-10T01:31:31;98101.22;;;4.06;63.75
70589;BME280;58152;49.202;18.744;2023-04-10T01:34:14;98096.03;;;4.03;64.08
70589;BME280;58152;49.202;18.744;2023-04-10T01:37:03;98100.38;;;4.01;63.95
70589;BME280;58152;49.202;18.744;2023-04-10T01:39:32;98103.88;;;3.97;63.52
70589;BME280;58152;49.202;18.744;2023-04-10T01:42:00;98109.94;;;3.93;63.20
70589;BME280;58152;49.202;18.744;2023-04-10T01:44:29;98107.38;;;3.88;63.62
70589;BME280;58152;49.202;18.744;2023-04-10T01:46:56;98104.81;;;3.83;63.61
70589;BME280;58152;49.202;18.744;2023-04-10T01:49:25;98111.78;;;3.81;63.68
70589;BME280;58152;49.202;18.744;2023-04-10T01:51:51;98110.03;;;3.82;63.39
70589;BME280;58152;49.202;18.744;2023-04-10T01:54:20;98103.97;;;3.83;63.74
70589;BME280;58152;49.202;18.744;2023-04-10T01:56:45;98103.97;;;3.80;64.22
70589;BME280;58152;49.202;18.744;2023-04-10T01:59:11;98097.94;;;3.79;64.21
70589;BME280;58152;49.202;18.744;2023-04-10T02:01:37;98105.72;;;3.78;64.43
70589;BME280;58152;49.202;18.744;2023-04-10T02:04:02;98106.56;;;3.80;64.05
70589;BME280;58152;49.202;18.744;2023-04-10T02:09:24;98106.63;;;3.71;64.74
70589;BME280;58152;49.202;18.744;2023-04-10T02:12:01;98099.75;;;3.67;64.67
70589;BME280;58152;49.202;18.744;2023-04-10T02:14:31;98111.84;;;3.66;64.54
70589;BME280;58152;49.202;18.744;2023-04-10T02:17:00;98104.09;;;3.60;64.77
70589;BME280;58152;49.202;18.744;2023-04-10T02:19:33;98102.38;;;3.62;64.62
70589;BME280;58152;49.202;18.744;2023-04-10T02:22:08;98101.50;;;3.62;64.67
70589;BME280;58152;49.202;18.744;2023-04-10T02:24:34;98100.69;;;3.53;64.19
70589;BME280;58152;49.202;18.744;2023-04-10T02:27:03;98096.38;;;3.48;64.10
70589;BME280;58152;49.202;18.744;2023-04-10T02:29:29;98108.50;;;3.50;64.00
70589;BME280;58152;49.202;18.744;2023-04-10T02:31:57;98108.47;;;3.53;64.16
70589;BME280;58152;49.202;18.744;2023-04-10T02:34:22;98105.06;;;3.45;63.90
70589;BME280;58152;49.202;18.744;2023-04-10T02:36:50;98092.97;;;3.41;63.91
70589;BME280;58152;49.202;18.744;2023-04-10T02:39:25;98118.03;;;3.48;64.45
70589;BME280;58152;49.202;18.744;2023-04-10T02:41:50;98104.19;;;3.43;64.11
70589;BME280;58152;49.202;18.744;2023-04-10T02:44:21;98102.50;;;3.39;64.35
70589;BME280;58152;49.202;18.744;2023-04-10T02:46:52;98107.66;;;3.42;64.65
70589;BME280;58152;49.202;18.744;2023-04-10T02:49:22;98107.63;;;3.50;64.26
70589;BME280;58152;49.202;18.744;2023-04-10T02:52:02;98124.06;;;3.50;64.67
70589;BME280;58152;49.202;18.744;2023-04-10T02:54:35;98119.72;;;3.52;64.94
70589;BME280;58152;49.202;18.744;2023-04-10T02:57:04;98094.66;;;3.47;64.61
70589;BME280;58152;49.202;18.744;2023-04-10T02:59:29;98092.97;;;3.44;65.25
70589;BME280;58152;49.202;18.744;2023-04-10T03:01:58;98112.81;;;3.50;65.05
70589;BME280;58152;49.202;18.744;2023-04-10T03:04:23;98092.09;;;3.45;65.25
70589;BME280;58152;49.202;18.744;2023-04-10T03:10:15;98117.16;;;3.49;65.42
70589;BME280;58152;49.202;18.744;2023-04-10T03:12:41;98111.97;;;3.43;65.15
70589;BME280;58152;49.202;18.744;2023-04-10T03:15:07;98112.84;;;3.42;65.23
70589;BME280;58152;49.202;18.744;2023-04-10T03:17:33;98102.50;;;3.36;65.42
70589;BME280;58152;49.202;18.744;2023-04-10T03:19:59;98109.41;;;3.39;65.42
70589;BME280;58152;49.202;18.744;2023-04-10T03:22:29;98098.22;;;3.30;65.68
70589;BME280;58152;49.202;18.744;2023-04-10T03:24:57;98105.16;;;3.30;65.91
70589;BME280;58152;49.202;18.744;2023-04-10T03:27:25;98094.75;;;3.28;65.46
70589;BME280;58152;49.202;18.744;2023-04-10T03:30:00;98109.44;;;3.33;65.52
70589;BME280;58152;49.202;18.744;2023-04-10T03:32:35;98105.97;;;3.32;65.63
70589;BME280;58152;49.202;18.744;2023-04-10T03:35:01;98105.97;;;3.34;65.95
70589;BME280;58152;49.202;18.744;2023-04-10T03:37:26;98106.84;;;3.36;65.58
70589;BME280;58152;49.202;18.744;2023-04-10T03:39:58;98105.09;;;3.36;65.83
70589;BME280;58152;49.202;18.744;2023-04-10T03:42:23;98107.72;;;3.35;66.13
70589;BME280;58152;49.202;18.744;2023-04-10T03:44:49;98101.63;;;3.34;66.06
70589;BME280;58152;49.202;18.744;2023-04-10T03:47:14;98099.03;;;3.34;66.21
70589;BME280;58152;49.202;18.744;2023-04-10T03:49:41;98106.81;;;3.39;65.99
70589;BME280;58152;49.202;18.744;2023-04-10T03:52:06;98106.84;;;3.36;66.16
70589;BME280;58152;49.202;18.744;2023-04-10T03:54:32;98111.16;;;3.34;66.81
70589;BME280;58152;49.202;18.744;2023-04-10T03:56:57;98112.88;;;3.33;66.26
70589;BME280;58152;49.202;18.744;2023-04-10T03:59:23;98117.19;;;3.34;66.58
70589;BME280;58152;49.202;18.744;2023-04-10T04:01:49;98108.59;;;3.30;66.42
70589;BME280;58152;49.202;18.744;2023-04-10T04:04:14;98110.34;;;3.27;66.66
70589;BME280;58152;49.202;18.744;2023-04-10T04:06:40;98112.94;;;3.27;66.45
70589;BME280;58152;49.202;18.744;2023-04-10T04:09:05;98114.63;;;3.29;66.80
70589;BME280;58152;49.202;18.744;2023-04-10T04:11:31;98113.78;;;3.27;66.77
70589;BME280;58152;49.202;18.744;2023-04-10T04:13:56;98129.31;;;3.35;66.82
70589;BME280;58152;49.202;18.744;2023-04-10T04:16:22;98118.09;;;3.33;66.92
70589;BME280;58152;49.202;18.744;2023-04-10T04:18:47;98120.69;;;3.35;66.89
70589;BME280;58152;49.202;18.744;2023-04-10T04:21:13;98131.88;;;3.38;66.88
70589;BME280;58152;49.202;18.744;2023-04-10T04:23:38;98115.53;;;3.30;67.15
70589;BME280;58152;49.202;18.744;2023-04-10T04:26:04;98125.84;;;3.38;66.90
70589;BME280;58152;49.202;18.744;2023-04-10T04:28:29;98120.66;;;3.33;66.89
70589;BME280;58152;49.202;18.744;2023-04-10T04:30:56;98118.94;;;3.34;66.85
70589;BME280;58152;49.202;18.744;2023-04-10T04:33:22;98132.75;;;3.39;66.95
70589;BME280;58152;49.202;18.744;2023-04-10T04:35:48;98135.34;;;3.40;66.92
70589;BME280;58152;49.202;18.744;2023-04-10T04:38:13;98124.16;;;3.32;67.14
70589;BME280;58152;49.202;18.744;2023-04-10T04:40:41;98127.59;;;3.33;67.07
70589;BME280;58152;49.202;18.744;2023-04-10T04:43:09;98137.97;;;3.33;67.08
70589;BME280;58152;49.202;18.744;2023-04-10T04:45:34;98122.47;;;3.22;66.90
70589;BME280;58152;49.202;18.744;2023-04-10T04:48:02;98131.09;;;3.25;66.76
70589;BME280;58152;49.202;18.744;2023-04-10T04:50:28;98141.47;;;3.25;66.93
70589;BME280;58152;49.202;18.744;2023-04-10T04:52:56;98136.28;;;3.24;67.05
70589;BME280;58152;49.202;18.744;2023-04-10T04:55:24;98133.69;;;3.19;67.06
70589;BME280;58152;49.202;18.744;2023-04-10T04:57:50;98125.06;;;3.16;67.41
70589;BME280;58152;49.202;18.744;2023-04-10T05:00:18;98125.06;;;3.14;66.88
70589;BME280;58152;49.202;18.744;2023-04-10T05:02:43;98134.59;;;3.17;67.39
70589;BME280;58152;49.202;18.744;2023-04-10T05:05:09;98138.88;;;3.19;67.09
70589;BME280;58152;49.202;18.744;2023-04-10T05:07:35;98129.38;;;3.18;67.25
70589;BME280;58152;49.202;18.744;2023-04-10T05:10:03;98139.75;;;3.21;67.34
70589;BME280;58152;49.202;18.744;2023-04-10T05:12:29;98143.22;;;3.19;67.42
70589;BME280;58152;49.202;18.744;2023-04-10T05:14:54;98146.69;;;3.21;67.28
70589;BME280;58152;49.202;18.744;2023-04-10T05:17:19;98156.19;;;3.19;67.60
70589;BME280;58152;49.202;18.744;2023-04-10T05:19:45;98156.19;;;3.17;67.64
70589;BME280;58152;49.202;18.744;2023-04-10T05:22:13;98152.75;;;3.17;67.57
70589;BME280;58152;49.202;18.744;2023-04-10T05:24:44;98158.78;;;3.19;67.48
70589;BME280;58152;49.202;18.744;2023-04-10T05:27:15;98151.91;;;3.12;67.64
70589;BME280;58152;49.202;18.744;2023-04-10T05:29:41;98163.09;;;3.20;67.88
70589;BME280;58152;49.202;18.744;2023-04-10T05:32:06;98153.59;;;3.17;67.86
70589;BME280;58152;49.202;18.744;2023-04-10T05:34:48;98149.25;;;3.24;68.24
70589;BME280;58152;49.202;18.744;2023-04-10T05:37:13;98146.66;;;3.22;68.45
70589;BME280;58152;49.202;18.744;2023-04-10T05:39:39;98141.47;;;3.24;68.11
70589;BME280;58152;49.202;18.744;2023-04-10T05:42:05;98148.38;;;3.28;68.34
70589;BME280;58152;49.202;18.744;2023-04-10T05:44:32;98150.97;;;3.31;68.29
70589;BME280;58152;49.202;18.744;2023-04-10T05:47:07;98144.03;;;3.35;68.22
70589;BME280;58152;49.202;18.744;2023-04-10T05:49:33;98151.78;;;3.38;68.47
70589;BME280;58152;49.202;18.744;2023-04-10T05:52:00;98143.16;;;3.36;68.63
70589;BME280;58152;49.202;18.744;2023-04-10T05:54:26;98137.09;;;3.40;68.20
70589;BME280;58152;49.202;18.744;2023-04-10T05:56:51;98137.09;;;3.40;68.53
70589;BME280;58152;49.202;18.744;2023-04-10T05:59:17;98132.72;;;3.43;68.62
70589;BME280;58152;49.202;18.744;2023-04-10T06:01:43;98139.63;;;3.49;68.79
70589;BME280;58152;49.202;18.744;2023-04-10T06:04:09;98134.41;;;3.52;68.48
70589;BME280;58152;49.202;18.744;2023-04-10T06:06:37;98139.59;;;3.58;68.55
70589;BME280;58152;49.202;18.744;2023-04-10T06:09:05;98132.66;;;3.59;68.75
70589;BME280;58152;49.202;18.744;2023-04-10T06:11:31;98152.50;;;3.70;68.77
70589;BME280;58152;49.202;18.744;2023-04-10T06:13:57;98149.06;;;3.65;68.64
70589;BME280;58152;49.202;18.744;2023-04-10T06:16:23;98135.19;;;3.66;68.67
70589;BME280;58152;49.202;18.744;2023-04-10T06:18:49;98149.03;;;3.73;68.87
70589;BME280;58152;49.202;18.744;2023-04-10T06:21:17;98141.25;;;3.73;69.13
70589;BME280;58152;49.202;18.744;2023-04-10T06:23:48;98129.13;;;3.70;69.27
70589;BME280;58152;49.202;18.744;2023-04-10T06:26:13;98138.63;;;3.77;69.10
70589;BME280;58152;49.202;18.744;2023-04-10T06:28:39;98139.47;;;3.78;69.26
70589;BME280;58152;49.202;18.744;2023-04-10T06:31:06;98133.41;;;3.79;69.22
70589;BME280;58152;49.202;18.744;2023-04-10T06:33:31;98132.56;;;3.78;69.36
70589;BME280;58152;49.202;18.744;2023-04-10T06:36:01;98148.94;;;3.88;69.07
70589;BME280;58152;49.202;18.744;2023-04-10T06:38:30;98135.97;;;3.83;69.07
70589;BME280;58152;49.202;18.744;2023-04-10T06:40:58;98134.22;;;3.89;69.70
70589;BME280;58152;49.202;18.744;2023-04-10T06:43:23;98137.63;;;3.97;69.96
70589;BME280;58152;49.202;18.744;2023-04-10T06:45:55;98148.81;;;4.05;69.54
70589;BME280;58152;49.202;18.744;2023-04-10T06:48:24;98145.34;;;4.06;70.01
70589;BME280;58152;49.202;18.744;2023-04-10T06:50:53;98153.94;;;4.17;69.95
70589;BME280;58152;49.202;18.744;2023-04-10T06:53:18;98145.28;;;4.18;70.24
70589;BME280;58152;49.202;18.744;2023-04-10T06:55:44;98149.56;;;4.21;70.00
70589;BME280;58152;49.202;18.744;2023-04-10T06:58:09;98152.16;;;4.27;70.28
70589;BME280;58152;49.202;18.744;2023-04-10T07:00:35;98150.38;;;4.29;69.95
70589;BME280;58152;49.202;18.744;2023-04-10T07:03:02;98151.22;;;4.36;70.13
70589;BME280;58152;49.202;18.744;2023-04-10T07:05:27;98134.69;;;4.40;70.02
70589;BME280;58152;49.202;18.744;2023-04-10T07:07:54;98151.03;;;4.55;70.26
70589;BME280;58152;49.202;18.744;2023-04-10T07:10:21;98129.38;;;4.53;70.19
70589;BME280;58152;49.202;18.744;2023-04-10T07:12:50;98143.22;;;4.58;70.16
70589;BME280;58152;49.202;18.744;2023-04-10T07:15:21;98144.00;;;4.65;70.26
70589;BME280;58152;49.202;18.744;2023-04-10T07:17:46;98139.69;;;4.64;70.29
70589;BME280;58152;49.202;18.744;2023-04-10T07:20:12;98139.66;;;4.69;70.02
70589;BME280;58152;49.202;18.744;2023-04-10T07:22:38;98145.66;;;4.75;70.32
70589;BME280;58152;49.202;18.744;2023-04-10T07:25:05;98133.47;;;4.79;70.45
70589;BME280;58152;49.202;18.744;2023-04-10T07:27:31;98142.97;;;4.86;70.15
70589;BME280;58152;49.202;18.744;2023-04-10T07:29:58;98140.31;;;4.91;70.21
70589;BME280;58152;49.202;18.744;2023-04-10T07:32:25;98139.38;;;4.95;70.05
70589;BME280;58152;49.202;18.744;2023-04-10T07:34:57;98136.72;;;5.01;70.51
70589;BME280;58152;49.202;18.744;2023-04-10T07:37:31;98141.03;;;5.03;70.41
70589;BME280;58152;49.202;18.744;2023-04-10T07:40:06;98141.84;;;5.07;70.16
70589;BME280;58152;49.202;18.744;2023-04-10T07:42:33;98145.28;;;5.10;70.17
70589;BME280;58152;49.202;18.744;2023-04-10T07:45:02;98145.19;;;5.20;70.54
70589;BME280;58152;49.202;18.744;2023-04-10T07:47:27;98138.16;;;5.28;70.13
70589;BME280;58152;49.202;18.744;2023-04-10T07:49:59;98130.31;;;5.32;70.36
70589;BME280;58152;49.202;18.744;2023-04-10T07:52:27;98132.81;;;5.39;70.31
70589;BME280;58152;49.202;18.744;2023-04-10T07:55:00;98135.28;;;5.49;70.18
70589;BME280;58152;49.202;18.744;2023-04-10T07:57:26;98134.34;;;5.56;70.62
70589;BME280;58152;49.202;18.744;2023-04-10T08:00:10;98128.28;;;5.56;70.92
70589;BME280;58152;49.202;18.744;2023-04-10T08:02:38;98135.94;;;5.67;70.83
70589;BME280;58152;49.202;18.744;2023-04-10T08:05:07;98128.97;;;5.67;70.95
70589;BME280;58152;49.202;18.744;2023-04-10T08:07:33;98137.63;;;5.69;70.73
70589;BME280;58152;49.202;18.744;2023-04-10T08:10:00;98130.69;;;5.70;71.05
70589;BME280;58152;49.202;18.744;2023-04-10T08:12:33;98127.09;;;5.78;71.15
70589;BME280;58152;49.202;18.744;2023-04-10T08:14:59;98131.31;;;5.85;71.13
70589;BME280;58152;49.202;18.744;2023-04-10T08:17:26;98139.94;;;5.94;71.13
70589;BME280;58152;49.202;18.744;2023-04-10T08:19:51;98126.91;;;5.91;71.35
70589;BME280;58152;49.202;18.744;2023-04-10T08:22:17;98131.25;;;5.93;71.21
70589;BME280;58152;49.202;18.744;2023-04-10T08:24:45;98132.06;;;5.95;71.50
70589;BME280;58152;49.202;18.744;2023-04-10T08:27:11;98127.75;;;5.96;71.60
70589;BME280;58152;49.202;18.744;2023-04-10T08:29:38;98132.03;;;5.98;71.45
70589;BME280;58152;49.202;18.744;2023-04-10T08:32:09;98128.56;;;6.01;71.90
70589;BME280;58152;49.202;18.744;2023-04-10T08:34:37;98126.81;;;6.01;71.57
70589;BME280;58152;49.202;18.744;2023-04-10T08:37:09;98131.09;;;6.05;71.75
70589;BME280;58152;49.202;18.744;2023-04-10T08:39:37;98128.41;;;6.08;72.14
70589;BME280;58152;49.202;18.744;2023-04-10T08:42:03;98127.50;;;6.14;72.07
70589;BME280;58152;49.202;18.744;2023-04-10T08:44:31;98126.59;;;6.14;71.91
70589;BME280;58152;49.202;18.744;2023-04-10T08:47:00;98109.19;;;6.19;72.23
70589;BME280;58152;49.202;18.744;2023-04-10T08:52:21;98121.91;;;6.35;72.72
70589;BME280;58152;49.202;18.744;2023-04-10T08:54:48;98123.53;;;6.43;72.16
70589;BME280;58152;49.202;18.744;2023-04-10T08:57:16;98112.25;;;6.41;72.24
70589;BME280;58152;49.202;18.744;2023-04-10T08:59:47;98117.41;;;6.45;72.53
70589;BME280;58152;49.202;18.744;2023-04-10T09:02:12;98104.38;;;6.47;72.41
70589;BME280;58152;49.202;18.744;2023-04-10T09:04:38;98119.81;;;6.57;72.38
70589;BME280;58152;49.202;18.744;2023-04-10T09:07:04;98116.34;;;6.57;72.74
70589;BME280;58152;49.202;18.744;2023-04-10T09:09:29;98125.84;;;6.61;72.25
70589;BME280;58152;49.202;18.744;2023-04-10T09:11:59;98124.91;;;6.63;72.69
70589;BME280;58152;49.202;18.744;2023-04-10T09:14:35;98108.44;;;6.61;72.52
70589;BME280;58152;49.202;18.744;2023-04-10T09:17:14;98113.50;;;6.71;72.67
70589;BME280;58152;49.202;18.744;2023-04-10T09:19:44;98112.72;;;6.66;72.48
70589;BME280;58152;49.202;18.744;2023-04-10T09:22:11;98107.44;;;6.70;72.25
70589;BME280;58152;49.202;18.744;2023-04-10T09:24:57;98116.84;;;6.77;72.13
70589;BME280;58152;49.202;18.744;2023-04-10T09:27:31;98099.56;;;6.72;72.22
70589;BME280;58152;49.202;18.744;2023-04-10T09:30:00;98115.03;;;6.81;72.46
70589;BME280;58152;49.202;18.744;2023-04-10T09:32:43;98114.09;;;6.85;72.51
70589;BME280;58152;49.202;18.744;2023-04-10T09:35:15;98102.91;;;6.80;72.08
70589;BME280;58152;49.202;18.744;2023-04-10T09:37:44;98094.09;;;6.85;72.33
70589;BME280;58152;49.202;18.744;2023-04-10T09:40:21;98095.75;;;6.90;71.92
70589;BME280;58152;49.202;18.744;2023-04-10T09:42:48;98101.78;;;6.92;72.26
70589;BME280;58152;49.202;18.744;2023-04-10T09:45:14;98095.66;;;6.94;71.87
70589;BME280;58152;49.202;18.744;2023-04-10T09:50:36;98097.03;;;7.13;71.56
70589;BME280;58152;49.202;18.744;2023-04-10T09:53:03;98097.88;;;7.16;72.22
70589;BME280;58152;49.202;18.744;2023-04-10T09:55:29;98084.78;;;7.17;72.13
70589;BME280;58152;49.202;18.744;2023-04-10T09:57:56;98086.50;;;7.18;71.96
70589;BME280;58152;49.202;18.744;2023-04-10T10:00:21;98093.38;;;7.22;71.36
70589;BME280;58152;49.202;18.744;2023-04-10T10:02:48;98077.75;;;7.21;71.51
70589;BME280;58152;49.202;18.744;2023-04-10T10:05:14;98084.63;;;7.25;71.94
70589;BME280;58152;49.202;18.744;2023-04-10T10:07:40;98086.25;;;7.30;71.30
70589;BME280;58152;49.202;18.744;2023-04-10T10:10:06;98074.78;;;7.39;71.57
70589;BME280;58152;49.202;18.744;2023-04-10T10:12:45;98082.41;;;7.48;71.61
70589;BME280;58152;49.202;18.744;2023-04-10T10:15:35;98073.66;;;7.49;71.69
70589;BME280;58152;49.202;18.744;2023-04-10T10:18:27;98076.09;;;7.58;71.79
70589;BME280;58152;49.202;18.744;2023-04-10T10:21:24;98069.94;;;7.61;71.73
70589;BME280;58152;49.202;18.744;2023-04-10T10:24:25;98072.56;;;7.59;70.92
70589;BME280;58152;49.202;18.744;2023-04-10T10:26:55;98063.94;;;7.56;71.09
70589;BME280;58152;49.202;18.744;2023-04-10T10:53:16;98051.91;;;7.87;71.49
70589;BME280;58152;49.202;18.744;2023-04-10T12:50:46;97916.97;;;11.59;63.06
70589;BME280;58152;49.202;18.744;2023-04-10T12:53:12;97911.34;;;11.47;63.61
70589;BME280;58152;49.202;18.744;2023-04-10T13:06:13;97878.59;;;12.57;60.91
70589;BME280;58152;49.202;18.744;2023-04-10T13:15:59;97872.56;;;13.31;58.98
70589;BME280;58152;49.202;18.744;2023-04-10T13:19:27;97868.13;;;13.50;59.13
70589;BME280;58152;49.202;18.744;2023-04-10T13:27:00;97861.75;;;14.23;56.09
70589;BME280;58152;49.202;18.744;2023-04-10T13:39:54;97852.50;;;14.98;55.18
70589;BME280;58152;49.202;18.744;2023-04-10T13:50:17;97833.16;;;15.75;54.56
70589;BME280;58152;49.202;18.744;2023-04-10T13:56:20;97812.53;;;15.96;53.98
70589;BME280;58152;49.202;18.744;2023-04-10T13:59:16;97808.50;;;16.34;51.90
70589;BME280;58152;49.202;18.744;2023-04-10T14:05:41;97824.09;;;16.95;51.14
70589;BME280;58152;49.202;18.744;2023-04-10T14:08:50;97815.13;;;16.26;52.38
70589;BME280;58152;49.202;18.744;2023-04-10T14:12:50;97815.88;;;15.84;51.38
70589;BME280;58152;49.202;18.744;2023-04-10T14:37:24;97770.81;;;17.00;49.61
70589;BME280;58152;49.202;18.744;2023-04-10T14:39:59;97776.66;;;17.05;51.06
70589;BME280;58152;49.202;18.744;2023-04-10T14:42:48;97759.66;;;16.66;51.12
70589;BME280;58152;49.202;18.744;2023-04-10T14:45:43;97760.06;;;16.74;50.18
70589;BME280;58152;49.202;18.744;2023-04-10T14:48:18;97777.25;;;16.96;50.48
70589;BME280;58152;49.202;18.744;2023-04-10T14:50:54;97761.28;;;16.83;50.35
70589;BME280;58152;49.202;18.744;2023-04-10T14:53:26;97756.28;;;16.79;50.25
70589;BME280;58152;49.202;18.744;2023-04-10T14:55:51;97744.44;;;16.84;50.08
70589;BME280;58152;49.202;18.744;2023-04-10T14:58:17;97752.69;;;16.80;50.21
70589;BME280;58152;49.202;18.744;2023-04-10T15:00:46;97751.34;;;16.87;50.05
70589;BME280;58152;49.202;18.744;2023-04-10T15:03:14;97751.97;;;17.05;49.80
70589;BME280;58152;49.202;18.744;2023-04-10T15:05:40;97737.34;;;17.12;49.32
70589;BME280;58152;49.202;18.744;2023-04-10T15:08:07;97734.09;;;16.94;49.68
70589;BME280;58152;49.202;18.744;2023-04-10T15:10:38;97743.00;;;17.20;49.53
70589;BME280;58152;49.202;18.744;2023-04-10T15:13:08;97743.34;;;17.28;48.55
70589;BME280;58152;49.202;18.744;2023-04-10T15:15:34;97733.78;;;17.25;48.59
70589;BME280;58152;49.202;18.744;2023-04-10T15:18:05;97738.47;;;17.35;48.71
70589;BME280;58152;49.202;18.744;2023-04-10T15:20:45;97738.69;;;17.44;47.54
70589;BME280;58152;49.202;18.744;2023-04-10T15:23:23;97729.69;;;17.47;48.52
70589;BME280;58152;49.202;18.744;2023-04-10T15:26:13;97734.59;;;17.53;48.44
70589;BME280;58152;49.202;18.744;2023-04-10T15:28:45;97741.50;;;17.56;47.92
70589;BME280;58152;49.202;18.744;2023-04-10T15:31:11;97730.34;;;17.50;48.39
70589;BME280;58152;49.202;18.744;2023-04-10T15:33:40;97717.06;;;17.38;48.71
70589;BME280;58152;49.202;18.744;2023-04-10T15:36:06;97722.78;;;17.44;48.58
70589;BME280;58152;49.202;18.744;2023-04-10T15:38:36;97721.41;;;17.39;48.30
70589;BME280;58152;49.202;18.744;2023-04-10T15:41:09;97727.75;;;17.36;47.54
70589;BME280;58152;49.202;18.744;2023-04-10T15:43:36;97721.28;;;17.27;48.02
70589;BME280;58152;49.202;18.744;2023-04-10T15:46:02;97730.56;;;17.20;48.08
70589;BME280;58152;49.202;18.744;2023-04-10T15:48:27;97720.78;;;17.08;48.30
70589;BME280;58152;49.202;18.744;2023-04-10T15:50:54;97724.97;;;16.98;48.34
70589;BME280;58152;49.202;18.744;2023-04-10T15:53:20;97723.94;;;16.73;48.66
70589;BME280;58152;49.202;18.744;2023-04-10T15:55:45;97725.19;;;16.39;48.85
70589;BME280;58152;49.202;18.744;2023-04-10T15:58:11;97725.94;;;16.41;49.10
70589;BME280;58152;49.202;18.744;2023-04-10T16:00:36;97716.78;;;16.33;48.80
70589;BME280;58152;49.202;18.744;2023-04-10T16:03:02;97720.16;;;16.35;48.92
70589;BME280;58152;49.202;18.744;2023-04-10T16:05:27;97705.94;;;16.23;49.02
70589;BME280;58152;49.202;18.744;2023-04-10T16:07:53;97716.69;;;16.20;49.12
70589;BME280;58152;49.202;18.744;2023-04-10T16:10:21;97708.00;;;16.18;49.12
70589;BME280;58152;49.202;18.744;2023-04-10T16:12:47;97709.88;;;16.16;49.16
70589;BME280;58152;49.202;18.744;2023-04-10T16:15:13;97702.44;;;16.08;49.32
70589;BME280;58152;49.202;18.744;2023-04-10T16:17:50;97706.41;;;16.01;49.00
70589;BME280;58152;49.202;18.744;2023-04-10T16:20:18;97705.94;;;15.94;49.20
70589;BME280;58152;49.202;18.744;2023-04-10T16:23:21;97702.13;;;15.84;48.43
70589;BME280;58152;49.202;18.744;2023-04-10T16:25:47;97700.53;;;15.67;49.85
70589;BME280;58152;49.202;18.744;2023-04-10T16:28:16;97700.94;;;15.60;49.84
70589;BME280;58152;49.202;18.744;2023-04-10T16:30:42;97693.66;;;15.49;50.00
70589;BME280;58152;49.202;18.744;2023-04-10T16:33:07;97697.44;;;15.45;50.29
70589;BME280;58152;49.202;18.744;2023-04-10T16:35:33;97695.50;;;15.33;50.40
70589;BME280;58152;49.202;18.744;2023-04-10T16:37:58;97697.84;;;15.23;50.21
70589;BME280;58152;49.202;18.744;2023-04-10T16:40:24;97692.31;;;15.12;50.54
70589;BME280;58152;49.202;18.744;2023-04-10T16:42:56;97703.41;;;15.03;50.83
70589;BME280;58152;49.202;18.744;2023-04-10T16:45:21;97690.72;;;14.93;50.44
70589;BME280;58152;49.202;18.744;2023-04-10T16:47:47;97688.63;;;14.84;50.82
70589;BME280;58152;49.202;18.744;2023-04-10T16:50:12;97693.41;;;14.78;50.98
70589;BME280;58152;49.202;18.744;2023-04-10T16:52:38;97686.00;;;14.68;51.00
70589;BME280;58152;49.202;18.744;2023-04-10T16:55:03;97688.06;;;14.63;50.96
70589;BME280;58152;49.202;18.744;2023-04-10T16:57:40;97680.75;;;14.53;51.14
70589;BME280;58152;49.202;18.744;2023-04-10T17:00:06;97675.88;;;14.45;51.71
70589;BME280;58152;49.202;18.744;2023-04-10T17:02:32;97681.91;;;14.47;51.86